createdAt,value
2022-08-12T00:03:10.033Z,66.60
2022-08-12T00:08:36.854Z,66.60
2022-08-12T00:13:52.949Z,66.90
2022-08-12T00:19:08.554Z,66.90
2022-08-12T00:24:26.852Z,67.30
2022-08-12T00:29:44.680Z,67.50
2022-08-12T00:35:08.727Z,67.40
2022-08-12T00:40:29.211Z,67.40
2022-08-12T00:45:47.773Z,68.00
2022-08-12T00:50:48.785Z,68.20
2022-08-12T00:55:48.529Z,68.20
2022-08-12T01:00:47.046Z,68.40
2022-08-12T01:06:05.270Z,68.80
2022-08-12T01:11:22.789Z,68.80
2022-08-12T01:16:22.757Z,69.00
2022-08-12T01:21:42.782Z,69.30
2022-08-12T01:26:43.648Z,69.10
2022-08-12T01:31:44.426Z,69.10
2022-08-12T01:36:46.881Z,68.80
2022-08-12T01:41:53.727Z,68.90
2022-08-12T01:47:05.741Z,68.90
2022-08-12T01:52:21.733Z,68.90
2022-08-12T01:57:58.328Z,69.20
2022-08-12T02:03:09.912Z,69.00
2022-08-12T02:08:36.129Z,69.20
2022-08-12T02:14:00.119Z,69.30
2022-08-12T02:19:21.906Z,69.20
2022-08-12T02:24:23.172Z,69.70
2022-08-12T02:29:23.660Z,70.10
2022-08-12T02:34:23.088Z,69.80
2022-08-12T02:39:25.160Z,69.80
2022-08-12T02:44:27.318Z,70.40
2022-08-12T02:49:31.464Z,70.30
2022-08-12T02:54:29.748Z,70.60
2022-08-12T02:59:32.350Z,70.50
2022-08-12T03:04:39.034Z,70.40
2022-08-12T03:10:03.673Z,70.80
2022-08-12T03:15:09.940Z,70.60
2022-08-12T03:20:11.172Z,70.70
2022-08-12T03:25:17.258Z,71.00
2022-08-12T03:30:17.882Z,71.40
2022-08-12T03:35:40.623Z,71.50
2022-08-12T03:41:15.680Z,71.80
2022-08-12T03:46:38.982Z,71.80
2022-08-12T03:51:54.916Z,71.80
2022-08-12T03:57:10.824Z,72.00
2022-08-12T04:02:15.053Z,72.00
2022-08-12T04:07:14.758Z,71.90
2022-08-12T04:12:32.748Z,71.90
2022-08-12T04:18:06.466Z,71.80
2022-08-12T04:22:59.888Z,72.00
2022-08-12T04:27:58.158Z,72.30
2022-08-12T04:33:13.714Z,72.50
2022-08-12T04:38:13.698Z,73.30
2022-08-12T04:44:00.020Z,73.80
2022-08-12T04:48:31.497Z,73.50
2022-08-12T04:53:31.304Z,73.40
2022-08-12T04:58:30.190Z,73.80
2022-08-12T05:03:28.652Z,73.70
2022-08-12T05:08:46.032Z,74.00
2022-08-12T05:13:46.330Z,74.30
2022-08-12T05:18:45.968Z,74.20
2022-08-12T05:23:47.502Z,73.90
2022-08-12T05:28:46.265Z,74.10
2022-08-12T05:33:45.881Z,74.50
2022-08-12T05:38:57.162Z,75.10
2022-08-12T05:43:58.743Z,75.20
2022-08-12T05:48:58.988Z,74.80
2022-08-12T05:53:58.618Z,74.60
2022-08-12T05:59:00.139Z,74.30
2022-08-12T06:03:59.147Z,74.10
2022-08-12T06:08:57.513Z,74.10
2022-08-12T06:13:58.486Z,74.10
2022-08-12T06:18:58.227Z,74.20
2022-08-12T06:23:56.433Z,73.60
2022-08-12T06:28:55.482Z,73.30
2022-08-12T06:34:59.373Z,73.00
2022-08-12T06:39:15.835Z,73.20
2022-08-12T06:44:20.539Z,73.00
2022-08-12T06:49:19.092Z,72.90
2022-08-12T06:54:30.763Z,72.10
2022-08-12T06:59:30.982Z,72.00
2022-08-12T07:04:37.825Z,71.70
2022-08-12T07:10:01.168Z,70.80
2022-08-12T07:14:58.628Z,70.70
2022-08-12T07:20:03.469Z,69.90
2022-08-12T07:25:37.608Z,69.10
2022-08-12T07:30:42.608Z,68.50
2022-08-12T07:35:43.484Z,67.90
2022-08-12T07:40:43.096Z,67.90
2022-08-12T07:45:41.304Z,66.70
2022-08-12T07:50:39.610Z,66.10
2022-08-12T07:55:37.902Z,66.80
2022-08-12T08:00:40.250Z,66.20
2022-08-12T08:05:39.902Z,65.30
2022-08-12T08:10:38.234Z,65.50
2022-08-12T08:16:01.856Z,65.40
2022-08-12T08:20:57.917Z,65.90
2022-08-12T08:25:56.490Z,65.30
2022-08-12T08:30:56.036Z,62.90
2022-08-12T08:35:54.968Z,62.90
2022-08-12T08:41:10.876Z,60.20
2022-08-12T08:46:10.479Z,60.40
2022-08-12T08:51:08.755Z,60.60
2022-08-12T08:56:08.636Z,58.60
2022-08-12T09:01:07.388Z,60.00
2022-08-12T09:13:22.848Z,59.70
2022-08-12T09:18:30.898Z,55.80
2022-08-12T09:23:58.642Z,57.20
2022-08-12T09:28:53.164Z,56.00
2022-08-12T09:34:29.553Z,55.80
2022-08-12T09:40:01.602Z,55.70
2022-08-12T09:44:48.194Z,55.60
2022-08-12T09:50:07.262Z,55.20
2022-08-12T09:56:06.121Z,53.90
2022-08-12T10:00:48.412Z,53.10
2022-08-12T10:13:07.205Z,52.60
2022-08-12T10:18:08.675Z,53.40
2022-08-12T10:23:06.988Z,52.10
2022-08-12T10:28:27.979Z,53.20
2022-08-12T10:33:31.599Z,52.80
2022-08-12T10:38:35.613Z,51.80
2022-08-12T10:43:56.434Z,51.20
2022-08-12T10:48:58.420Z,52.30
2022-08-12T10:54:05.498Z,52.20
2022-08-12T10:59:10.757Z,52.80
2022-08-12T11:04:23.463Z,52.70
2022-08-12T11:09:51.226Z,50.00
2022-08-12T11:14:52.121Z,48.80
2022-08-12T11:19:52.024Z,47.40
2022-08-12T11:24:51.377Z,48.60
2022-08-12T11:30:01.831Z,48.40
2022-08-12T11:35:08.058Z,47.80
2022-08-12T11:45:13.005Z,47.70
2022-08-12T11:50:32.249Z,47.20
2022-08-12T11:55:33.015Z,44.80
2022-08-12T12:05:50.900Z,44.70
2022-08-12T12:10:50.319Z,45.80
2022-08-12T12:15:49.048Z,44.80
2022-08-12T12:20:48.305Z,44.30
2022-08-12T12:25:59.525Z,43.10
2022-08-12T12:31:15.136Z,43.60
2022-08-12T12:36:30.157Z,43.50
2022-08-12T12:42:41.754Z,42.80
2022-08-12T12:46:49.848Z,44.20
2022-08-12T12:52:17.196Z,45.40
2022-08-12T12:57:07.985Z,44.00
2022-08-12T13:02:08.700Z,43.60
2022-08-12T13:07:07.996Z,43.80
2022-08-12T13:12:10.810Z,41.60
2022-08-12T13:17:11.369Z,43.50
2022-08-12T13:22:23.774Z,43.10
2022-08-12T13:27:28.194Z,42.90
2022-08-12T13:32:41.488Z,40.90
2022-08-12T13:37:43.640Z,42.10
2022-08-12T13:42:45.015Z,41.00
2022-08-12T13:47:55.543Z,42.40
2022-08-12T13:52:54.560Z,43.30
2022-08-12T13:57:54.889Z,42.20
2022-08-12T14:02:58.420Z,41.60
2022-08-12T14:07:59.441Z,41.20
2022-08-12T14:13:01.639Z,41.80
2022-08-12T14:18:10.653Z,41.90
2022-08-12T14:24:01.521Z,41.10
2022-08-12T14:28:34.438Z,41.50
2022-08-12T14:33:44.030Z,41.90
2022-08-12T14:38:46.255Z,42.50
2022-08-12T14:43:59.106Z,43.50
2022-08-12T14:49:42.430Z,41.40
2022-08-12T15:00:00.261Z,41.10
2022-08-12T15:05:03.580Z,41.50
2022-08-12T15:10:02.258Z,42.20
2022-08-12T15:15:03.324Z,41.70
2022-08-12T15:20:11.857Z,42.60
2022-08-12T15:25:23.847Z,43.00
2022-08-12T15:30:24.780Z,42.20
2022-08-12T15:35:23.315Z,42.20
2022-08-12T15:40:30.275Z,43.70
2022-08-12T15:45:31.931Z,44.30
2022-08-12T15:50:30.931Z,44.80
2022-08-12T15:55:33.534Z,44.60
2022-08-12T16:00:35.820Z,43.40
2022-08-12T16:06:17.292Z,45.40
2022-08-12T16:10:54.637Z,44.10
2022-08-12T16:16:02.851Z,44.20
2022-08-12T16:21:01.229Z,44.30
2022-08-12T16:26:05.174Z,45.10
2022-08-12T16:31:06.368Z,44.90
2022-08-12T16:36:11.217Z,44.80
2022-08-12T16:41:09.706Z,44.40
2022-08-12T16:46:31.353Z,43.90
2022-08-12T16:51:31.083Z,45.20
2022-08-12T16:56:37.920Z,45.50
2022-08-12T17:01:37.734Z,46.10
2022-08-12T17:06:36.647Z,45.20
2022-08-12T17:11:39.373Z,45.60
2022-08-12T17:16:43.314Z,46.00
2022-08-12T17:22:01.924Z,46.60
2022-08-12T17:27:02.171Z,46.70
2022-08-12T17:32:11.235Z,46.40
2022-08-12T17:37:09.618Z,46.40
2022-08-12T17:42:35.027Z,46.60
2022-08-12T17:47:36.360Z,47.20
2022-08-12T17:52:36.988Z,47.10
2022-08-12T17:57:41.716Z,47.60
2022-08-12T18:02:42.555Z,47.50
2022-08-12T18:07:41.188Z,47.80
2022-08-12T18:12:47.130Z,47.90
2022-08-12T18:17:49.492Z,47.70
2022-08-12T18:23:01.141Z,48.20
2022-08-12T18:28:16.667Z,48.10
2022-08-12T18:33:23.719Z,48.40
2022-08-12T18:38:24.816Z,48.50
2022-08-12T18:43:23.842Z,48.70
2022-08-12T18:48:24.738Z,49.10
2022-08-12T18:54:07.313Z,49.20
2022-08-12T18:58:59.231Z,49.10
2022-08-12T19:04:00.510Z,49.20
2022-08-12T19:08:59.866Z,49.40
2022-08-12T19:14:15.305Z,49.40
2022-08-12T19:19:18.268Z,49.70
2022-08-12T19:24:34.241Z,49.80
2022-08-12T19:29:39.663Z,50.00
2022-08-12T19:36:07.449Z,50.30
2022-08-12T19:40:31.046Z,50.40
2022-08-12T19:45:43.328Z,50.50
2022-08-12T19:50:50.390Z,51.20
2022-08-12T19:55:53.142Z,50.70
2022-08-12T20:00:53.229Z,51.00
2022-08-12T20:06:05.882Z,51.10
2022-08-12T20:12:09.598Z,51.20
2022-08-12T20:16:50.793Z,51.30
2022-08-12T20:21:45.433Z,51.50
2022-08-12T20:26:44.201Z,51.70
2022-08-12T20:31:44.381Z,52.00
2022-08-12T20:36:45.147Z,52.20
2022-08-12T20:41:44.096Z,52.30
2022-08-12T20:46:42.268Z,52.60
2022-08-12T20:51:54.941Z,53.00
2022-08-12T20:56:55.388Z,53.20
2022-08-12T21:01:53.853Z,53.60
2022-08-12T21:06:58.413Z,53.80
2022-08-12T21:12:27.833Z,54.10
2022-08-12T21:17:33.980Z,54.70
2022-08-12T21:22:46.086Z,54.70
2022-08-12T21:27:59.300Z,55.00
2022-08-12T21:32:59.236Z,55.10
2022-08-12T21:37:57.384Z,55.30
2022-08-12T21:42:56.979Z,55.50
2022-08-12T21:47:56.043Z,55.60
2022-08-12T21:52:54.595Z,56.10
2022-08-12T21:58:02.854Z,56.10
2022-08-12T22:03:30.387Z,56.50
2022-08-12T22:08:39.933Z,56.50
2022-08-12T22:14:07.878Z,56.80
2022-08-12T22:19:06.420Z,57.00
2022-08-12T22:24:05.971Z,57.00
2022-08-12T22:29:21.959Z,57.40
2022-08-12T22:34:29.633Z,57.70
2022-08-12T22:39:31.603Z,58.10
2022-08-12T22:44:54.436Z,57.80
2022-08-12T22:49:59.870Z,58.30
2022-08-12T22:55:04.327Z,58.60
2022-08-12T23:00:10.115Z,58.40
2022-08-12T23:05:57.547Z,58.60
2022-08-12T23:10:45.078Z,58.80
2022-08-12T23:15:47.616Z,58.90
2022-08-12T23:20:54.046Z,58.90
2022-08-12T23:25:55.541Z,59.80
2022-08-12T23:31:04.597Z,59.70
2022-08-12T23:36:06.799Z,59.90
2022-08-12T23:41:06.683Z,60.00
2022-08-12T23:46:06.328Z,60.00
2022-08-12T23:51:23.139Z,59.90
2022-08-12T23:56:22.665Z,60.20
